createdAt,value
2023-02-08T00:00:52.900Z,4.00
2023-02-08T00:03:23.195Z,3.60
2023-02-08T00:05:56.038Z,5.07
2023-02-08T00:08:26.331Z,4.85
2023-02-08T00:10:56.888Z,4.50
2023-02-08T00:13:30.003Z,5.05
2023-02-08T00:16:00.336Z,3.67
2023-02-08T00:18:30.680Z,5.18
2023-02-08T00:21:01.044Z,5.22
2023-02-08T00:23:31.235Z,3.97
2023-02-08T00:26:01.407Z,4.28
2023-02-08T00:28:35.927Z,4.72
2023-02-08T00:31:06.658Z,4.43
2023-02-08T00:33:37.415Z,5.05
2023-02-08T00:36:10.449Z,4.57
2023-02-08T00:38:40.779Z,5.07
2023-02-08T00:41:11.077Z,4.68
2023-02-08T00:43:43.834Z,4.53
2023-02-08T00:46:16.445Z,3.88
2023-02-08T00:48:48.941Z,4.78
2023-02-08T00:51:21.530Z,3.53
2023-02-08T00:53:51.711Z,4.72
2023-02-08T00:56:22.601Z,5.15
2023-02-08T00:58:58.724Z,5.75
2023-02-08T01:01:29.078Z,5.85
2023-02-08T01:04:02.103Z,5.28
2023-02-08T01:06:32.427Z,4.60
2023-02-08T01:09:06.312Z,2.50
2023-02-08T01:11:37.076Z,5.05
2023-02-08T01:14:09.908Z,7.00
2023-02-08T01:16:40.440Z,5.95
2023-02-08T01:19:10.792Z,4.72
2023-02-08T01:21:44.105Z,4.93
2023-02-08T01:24:14.782Z,6.15
2023-02-08T01:26:45.214Z,5.88
2023-02-08T01:29:18.324Z,6.25
2023-02-08T01:31:49.161Z,6.13
2023-02-08T01:34:19.331Z,5.32
2023-02-08T01:36:49.781Z,5.63
2023-02-08T01:39:19.975Z,6.45
2023-02-08T01:41:50.376Z,7.28
2023-02-08T01:44:50.470Z,6.22
2023-02-08T01:47:23.342Z,7.50
2023-02-08T01:49:54.918Z,6.25
2023-02-08T01:52:31.487Z,6.97
2023-02-08T01:55:05.705Z,5.65
2023-02-08T01:57:36.129Z,6.18
2023-02-08T02:00:11.433Z,5.90
2023-02-08T02:02:53.420Z,5.60
2023-02-08T02:05:25.575Z,6.10
2023-02-08T02:08:01.526Z,6.93
2023-02-08T02:10:34.847Z,5.35
2023-02-08T02:13:08.900Z,6.40
2023-02-08T02:15:39.197Z,5.65
2023-02-08T02:18:12.807Z,5.28
2023-02-08T02:21:01.443Z,4.95
2023-02-08T02:24:13.161Z,5.47
2023-02-08T02:27:19.851Z,5.45
2023-02-08T02:30:23.146Z,4.38
2023-02-08T02:33:13.380Z,4.50
2023-02-08T02:35:54.771Z,3.72
2023-02-08T02:38:34.658Z,4.05
2023-02-08T02:41:12.158Z,3.53
2023-02-08T02:43:46.541Z,3.40
2023-02-08T02:46:26.814Z,3.28
2023-02-08T02:49:06.842Z,3.92
2023-02-08T02:51:43.734Z,3.63
2023-02-08T02:54:19.695Z,2.67
2023-02-08T02:56:54.090Z,2.08
2023-02-08T02:59:25.593Z,2.25
2023-02-08T03:01:58.192Z,2.97
2023-02-08T03:04:58.899Z,1.30
2023-02-08T03:07:55.014Z,2.45
2023-02-08T03:10:43.388Z,2.05
2023-02-08T03:13:24.497Z,3.40
2023-02-08T03:16:05.887Z,2.90
2023-02-08T03:18:47.915Z,2.60
2023-02-08T03:21:29.650Z,3.05
2023-02-08T03:24:05.439Z,3.17
2023-02-08T03:26:41.651Z,3.15
2023-02-08T03:29:19.674Z,2.20
2023-02-08T03:31:55.232Z,3.20
2023-02-08T03:34:32.002Z,3.42
2023-02-08T03:37:08.658Z,2.38
2023-02-08T03:39:41.087Z,3.50
2023-02-08T03:42:16.406Z,2.50
2023-02-08T03:44:54.064Z,2.55
2023-02-08T03:47:27.649Z,3.28
2023-02-08T03:50:03.048Z,1.90
2023-02-08T03:52:37.625Z,2.75
2023-02-08T03:55:16.469Z,2.80
2023-02-08T03:57:51.285Z,3.38
2023-02-08T04:00:23.121Z,2.42
2023-02-08T04:02:59.987Z,3.65
2023-02-08T04:05:31.316Z,1.10
2023-02-08T04:08:04.172Z,3.50
2023-02-08T04:10:34.406Z,4.63
2023-02-08T04:13:04.679Z,4.55
2023-02-08T04:15:36.752Z,2.28
2023-02-08T04:18:07.614Z,2.17
2023-02-08T04:20:39.219Z,3.35
2023-02-08T04:23:12.344Z,3.40
2023-02-08T04:25:42.544Z,2.88
2023-02-08T04:28:13.763Z,2.92
2023-02-08T04:30:44.541Z,2.33
2023-02-08T04:33:15.127Z,3.58
2023-02-08T04:35:45.443Z,6.22
2023-02-08T04:38:19.415Z,6.90
2023-02-08T04:40:49.728Z,6.85
2023-02-08T04:43:19.992Z,7.13
2023-02-08T04:45:50.140Z,6.25
2023-02-08T04:48:20.897Z,6.05
2023-02-08T04:50:51.084Z,5.20
2023-02-08T04:53:24.415Z,4.43
2023-02-08T04:55:55.484Z,4.88
2023-02-08T04:58:26.170Z,6.55
2023-02-08T05:00:57.484Z,9.77
2023-02-08T05:03:27.716Z,3.45
2023-02-08T05:06:01.830Z,8.27
2023-02-08T05:11:04.589Z,3.35
2023-02-08T05:13:34.900Z,3.53
2023-02-08T05:16:05.127Z,3.33
2023-02-08T05:18:35.501Z,4.47
2023-02-08T05:21:06.504Z,5.13
2023-02-08T05:23:40.683Z,3.25
2023-02-08T05:26:12.231Z,2.80
2023-02-08T05:28:42.382Z,4.65
2023-02-08T05:31:14.955Z,4.45
2023-02-08T05:33:45.144Z,3.20
2023-02-08T05:36:15.511Z,3.50
2023-02-08T05:38:48.295Z,1.98
2023-02-08T05:41:19.052Z,3.95
2023-02-08T05:43:50.867Z,2.55
2023-02-08T05:46:21.035Z,3.05
2023-02-08T05:48:51.659Z,3.80
2023-02-08T05:51:22.324Z,2.95
2023-02-08T05:53:55.123Z,4.15
2023-02-08T05:56:25.312Z,2.78
2023-02-08T05:58:55.501Z,4.32
2023-02-08T06:01:25.963Z,3.80
2023-02-08T06:03:56.380Z,3.40
2023-02-08T06:06:26.506Z,2.72
2023-02-08T06:08:59.285Z,3.88
2023-02-08T06:11:29.923Z,3.27
2023-02-08T06:14:00.228Z,3.83
2023-02-08T06:16:30.716Z,3.97
2023-02-08T06:19:01.158Z,4.25
2023-02-08T06:21:31.370Z,3.45
2023-02-08T06:24:04.167Z,3.88
2023-02-08T06:26:34.305Z,4.57
2023-02-08T06:29:04.782Z,4.28
2023-02-08T06:31:35.052Z,3.72
2023-02-08T06:34:05.331Z,4.22
2023-02-08T06:36:35.706Z,4.25
2023-02-08T06:39:08.563Z,3.47
2023-02-08T06:41:38.829Z,5.85
2023-02-08T06:44:09.666Z,4.50
2023-02-08T06:46:39.976Z,2.97
2023-02-08T06:49:10.286Z,3.58
2023-02-08T06:51:40.515Z,3.65
2023-02-08T06:54:13.360Z,3.30
2023-02-08T06:56:46.076Z,3.67
2023-02-08T06:59:19.508Z,5.65
2023-02-08T07:01:50.101Z,4.80
2023-02-08T07:04:20.339Z,8.57
2023-02-08T07:06:51.682Z,4.35
2023-02-08T07:09:24.619Z,4.15
2023-02-08T07:11:55.079Z,3.37
2023-02-08T07:14:25.573Z,3.80
2023-02-08T07:16:56.316Z,6.07
2023-02-08T07:19:26.688Z,4.25
2023-02-08T07:21:56.956Z,3.67
2023-02-08T07:24:29.767Z,4.18
2023-02-08T07:27:00.198Z,3.55
2023-02-08T07:29:32.130Z,4.05
2023-02-08T07:32:03.929Z,3.70
2023-02-08T07:34:35.714Z,3.25
2023-02-08T07:37:06.160Z,2.40
2023-02-08T07:39:39.435Z,3.17
2023-02-08T07:42:11.156Z,3.45
2023-02-08T07:44:41.816Z,4.13
2023-02-08T07:47:12.304Z,3.72
2023-02-08T07:49:43.297Z,3.38
2023-02-08T07:52:13.495Z,2.53
2023-02-08T07:54:46.222Z,3.50
2023-02-08T07:57:21.240Z,3.58
2023-02-08T07:59:54.223Z,3.05
2023-02-08T08:02:24.611Z,2.45
2023-02-08T08:04:55.363Z,3.38
2023-02-08T08:07:25.629Z,3.42
2023-02-08T08:09:58.611Z,1.73
2023-02-08T08:12:28.994Z,2.58
2023-02-08T08:14:59.385Z,4.13
2023-02-08T08:17:30.179Z,4.53
2023-02-08T08:20:00.755Z,2.63
2023-02-08T08:22:30.969Z,3.22
2023-02-08T08:25:06.630Z,2.80
2023-02-08T08:27:37.622Z,3.20
2023-02-08T08:30:11.109Z,4.07
2023-02-08T08:32:46.732Z,2.30
2023-02-08T08:35:17.289Z,3.15
2023-02-08T08:37:47.534Z,3.17
2023-02-08T08:40:20.711Z,3.78
2023-02-08T08:42:51.007Z,3.40
2023-02-08T08:45:21.514Z,3.38
2023-02-08T08:47:51.900Z,7.65
2023-02-08T08:50:22.457Z,3.30
2023-02-08T08:52:52.897Z,3.88
2023-02-08T08:55:28.954Z,2.83
2023-02-08T08:57:59.159Z,2.78
2023-02-08T09:00:29.622Z,2.90
2023-02-08T09:02:59.972Z,3.95
2023-02-08T09:05:30.142Z,3.28
2023-02-08T09:08:01.559Z,3.63
2023-02-08T09:10:35.270Z,4.47
2023-02-08T09:13:05.567Z,2.70
2023-02-08T09:15:35.766Z,2.85
2023-02-08T09:18:05.936Z,3.75
2023-02-08T09:20:36.211Z,5.15
2023-02-08T09:23:07.002Z,4.57
2023-02-08T09:25:40.416Z,3.70
2023-02-08T09:28:10.662Z,4.20
2023-02-08T09:30:41.315Z,2.17
2023-02-08T09:33:11.971Z,4.72
2023-02-08T09:35:42.751Z,2.83
2023-02-08T09:38:13.273Z,3.40
2023-02-08T09:41:11.712Z,3.97
2023-02-08T09:43:54.407Z,4.40
2023-02-08T09:46:27.590Z,2.92
2023-02-08T09:49:01.244Z,5.10
2023-02-08T09:51:35.639Z,3.33
2023-02-08T09:54:11.705Z,2.47
2023-02-08T09:56:46.139Z,3.65
2023-02-08T09:59:19.924Z,4.60
2023-02-08T10:01:52.305Z,4.50
2023-02-08T10:04:31.035Z,4.03
2023-02-08T10:07:01.188Z,4.35
2023-02-08T10:09:31.524Z,3.63
2023-02-08T10:12:16.797Z,4.07
2023-02-08T10:14:59.235Z,5.13
2023-02-08T10:17:48.770Z,3.30
2023-02-08T10:20:27.957Z,3.13
2023-02-08T10:23:10.388Z,5.00
2023-02-08T10:25:59.914Z,3.40
2023-02-08T10:28:49.001Z,2.83
2023-02-08T10:31:32.641Z,3.45
2023-02-08T10:34:08.426Z,3.10
2023-02-08T10:36:42.545Z,3.08
2023-02-08T10:39:19.734Z,2.92
2023-02-08T10:41:50.384Z,2.50
2023-02-08T10:44:31.579Z,3.15
2023-02-08T10:47:14.155Z,4.20
2023-02-08T10:49:51.566Z,5.43
2023-02-08T10:52:22.118Z,3.10
2023-02-08T10:54:53.723Z,2.85
2023-02-08T10:57:28.827Z,3.92
2023-02-08T11:00:05.546Z,2.70
2023-02-08T11:02:38.412Z,2.45
2023-02-08T11:05:11.074Z,2.80
2023-02-08T11:07:41.992Z,2.67
2023-02-08T11:10:26.359Z,3.13
2023-02-08T11:15:40.873Z,3.90
2023-02-08T11:18:21.874Z,3.45
2023-02-08T11:20:54.072Z,3.22
2023-02-08T11:23:27.639Z,3.35
2023-02-08T11:25:58.727Z,4.15
2023-02-08T11:28:32.378Z,3.97
2023-02-08T11:31:19.422Z,4.55
2023-02-08T11:34:02.441Z,3.85
2023-02-08T11:36:34.849Z,3.60
2023-02-08T11:39:09.452Z,2.83
2023-02-08T11:41:39.864Z,3.20
2023-02-08T11:44:22.916Z,3.65
2023-02-08T11:46:57.004Z,3.35
2023-02-08T11:51:59.031Z,2.70
2023-02-08T11:54:39.056Z,2.80
2023-02-08T11:57:16.117Z,3.63
2023-02-08T11:59:46.721Z,3.38
2023-02-08T12:02:39.393Z,3.17
2023-02-08T12:05:16.317Z,3.95
2023-02-08T12:07:59.719Z,3.42
2023-02-08T12:10:54.924Z,3.17
2023-02-08T12:13:52.732Z,3.45
2023-02-08T12:16:42.940Z,3.63
2023-02-08T12:19:55.067Z,3.20
2023-02-08T12:22:30.247Z,3.92
2023-02-08T12:25:18.285Z,3.50
2023-02-08T12:27:58.035Z,3.35
2023-02-08T12:30:35.626Z,3.15
2023-02-08T12:33:29.389Z,2.08
2023-02-08T12:36:12.706Z,3.87
2023-02-08T12:39:20.722Z,3.40
2023-02-08T12:42:14.575Z,3.10
2023-02-08T12:44:59.427Z,3.70
2023-02-08T12:48:03.014Z,3.65
2023-02-08T12:50:43.920Z,4.28
2023-02-08T12:53:22.758Z,3.63
2023-02-08T12:55:57.258Z,3.40
2023-02-08T12:58:32.458Z,4.32
2023-02-08T13:01:10.898Z,3.22
2023-02-08T13:03:48.115Z,3.70
2023-02-08T13:06:21.671Z,4.30
2023-02-08T13:08:58.382Z,3.13
2023-02-08T13:11:37.701Z,2.85
2023-02-08T13:14:15.179Z,4.78
2023-02-08T13:16:52.683Z,3.30
2023-02-08T13:19:31.239Z,4.18
2023-02-08T13:22:02.879Z,2.90
2023-02-08T13:24:37.952Z,3.92
2023-02-08T13:27:18.222Z,3.13
2023-02-08T13:29:52.042Z,3.70
2023-02-08T13:32:29.675Z,3.03
2023-02-08T13:35:04.828Z,3.70
2023-02-08T13:37:37.810Z,3.20
2023-02-08T13:40:11.391Z,3.67
2023-02-08T13:42:50.846Z,3.70
2023-02-08T13:45:29.992Z,2.90
2023-02-08T13:48:02.972Z,3.00
2023-02-08T13:50:46.778Z,2.65
2023-02-08T13:53:17.967Z,3.97
2023-02-08T13:55:57.828Z,3.58
2023-02-08T13:59:03.196Z,4.00
2023-02-08T14:01:36.006Z,2.60
2023-02-08T14:04:32.020Z,3.45
2023-02-08T14:07:25.316Z,4.40
2023-02-08T14:10:23.090Z,3.47
2023-02-08T14:12:59.967Z,2.17
2023-02-08T14:15:43.747Z,3.70
2023-02-08T14:18:27.785Z,3.67
2023-02-08T14:21:25.344Z,4.05
2023-02-08T14:24:06.532Z,3.05
2023-02-08T14:26:39.343Z,1.67
2023-02-08T14:29:10.210Z,3.47
2023-02-08T14:31:45.790Z,1.98
2023-02-08T14:34:35.586Z,2.25
2023-02-08T14:37:28.163Z,3.03
2023-02-08T14:40:37.926Z,2.90
2023-02-08T14:43:32.666Z,3.50
2023-02-08T14:46:32.605Z,3.88
2023-02-08T14:49:13.916Z,3.10
2023-02-08T14:51:48.727Z,3.83
2023-02-08T14:54:26.204Z,3.50
2023-02-08T14:57:00.309Z,3.45
2023-02-08T14:59:33.628Z,3.55
2023-02-08T15:02:06.209Z,3.20
2023-02-08T15:04:45.607Z,3.92
2023-02-08T15:07:33.636Z,3.30
2023-02-08T15:10:07.732Z,3.63
2023-02-08T15:12:42.032Z,2.67
2023-02-08T15:15:26.952Z,4.32
2023-02-08T15:17:58.799Z,4.10
2023-02-08T15:20:34.296Z,2.50
2023-02-08T15:23:07.149Z,3.50
2023-02-08T15:25:39.377Z,3.67
2023-02-08T15:28:22.380Z,4.05
2023-02-08T15:30:58.642Z,5.05
2023-02-08T15:33:29.535Z,3.70
2023-02-08T15:36:06.530Z,3.40
2023-02-08T15:38:41.415Z,4.30
2023-02-08T15:41:14.140Z,4.45
2023-02-08T15:43:45.789Z,3.85
2023-02-08T15:46:24.875Z,4.80
2023-02-08T15:48:57.550Z,4.40
2023-02-08T15:51:33.494Z,4.70
2023-02-08T15:54:04.292Z,4.43
2023-02-08T15:56:42.420Z,4.93
2023-02-08T15:59:25.379Z,4.40
2023-02-08T16:01:56.985Z,4.63
2023-02-08T16:04:27.927Z,4.78
2023-02-08T16:07:01.539Z,4.47
2023-02-08T16:09:32.629Z,4.93
2023-02-08T16:12:03.879Z,3.88
2023-02-08T16:14:50.572Z,5.00
2023-02-08T16:17:39.938Z,3.97
2023-02-08T16:20:42.424Z,3.75
2023-02-08T16:23:30.298Z,4.85
2023-02-08T16:26:12.552Z,4.65
2023-02-08T16:28:43.099Z,3.85
2023-02-08T16:31:13.909Z,3.83
2023-02-08T16:33:44.669Z,4.43
2023-02-08T16:36:25.941Z,4.43
2023-02-08T16:39:30.625Z,4.40
2023-02-08T16:45:27.821Z,4.30
2023-02-08T16:48:04.244Z,4.82
2023-02-08T16:50:44.013Z,4.72
2023-02-08T16:53:15.723Z,5.90
2023-02-08T16:55:46.034Z,5.20
2023-02-08T16:58:23.053Z,5.82
2023-02-08T17:00:54.312Z,5.45
2023-02-08T17:03:24.907Z,5.55
2023-02-08T17:05:56.992Z,5.82
2023-02-08T17:08:27.294Z,5.18
2023-02-08T17:10:59.195Z,6.07
2023-02-08T17:13:32.206Z,8.98
2023-02-08T17:16:03.125Z,8.98
2023-02-08T17:18:34.969Z,10.30
2023-02-08T17:21:05.640Z,10.32
2023-02-08T17:23:38.660Z,8.88
2023-02-08T17:26:14.295Z,8.70
2023-02-08T17:28:47.276Z,11.10
2023-02-08T17:31:18.035Z,11.55
2023-02-08T17:33:50.218Z,10.60
2023-02-08T17:36:21.743Z,10.60
2023-02-08T17:38:52.384Z,10.13
2023-02-08T17:41:24.373Z,9.93
2023-02-08T17:43:58.877Z,10.63
2023-02-08T17:46:31.238Z,9.35
2023-02-08T17:49:03.759Z,10.38
2023-02-08T17:51:34.479Z,8.93
2023-02-08T17:54:07.380Z,9.75
2023-02-08T17:56:37.797Z,7.95
2023-02-08T17:59:10.730Z,9.80
2023-02-08T18:01:41.260Z,8.37
2023-02-08T18:04:13.560Z,8.40
2023-02-08T18:06:43.963Z,8.25
2023-02-08T18:09:14.229Z,7.93
2023-02-08T18:11:45.134Z,7.32
2023-02-08T18:14:18.534Z,7.82
2023-02-08T18:16:49.289Z,7.65
2023-02-08T18:19:20.004Z,7.55
2023-02-08T18:21:50.697Z,8.70
2023-02-08T18:24:21.094Z,8.10
2023-02-08T18:26:51.345Z,9.98
2023-02-08T18:29:24.765Z,8.27
2023-02-08T18:31:55.771Z,9.88
2023-02-08T18:34:26.325Z,8.82
2023-02-08T18:36:56.702Z,8.43
2023-02-08T18:39:26.898Z,7.40
2023-02-08T18:41:57.827Z,7.80
2023-02-08T18:44:35.413Z,8.32
2023-02-08T18:47:05.942Z,8.23
2023-02-08T18:49:40.961Z,6.55
2023-02-08T18:52:12.808Z,7.35
2023-02-08T18:54:44.616Z,8.35
2023-02-08T18:57:16.020Z,7.40
2023-02-08T18:59:54.254Z,7.38
2023-02-08T19:02:26.567Z,9.10
2023-02-08T19:04:57.214Z,9.82
2023-02-08T19:07:27.431Z,9.48
2023-02-08T19:09:58.008Z,9.68
2023-02-08T19:12:28.506Z,8.65
2023-02-08T19:15:01.897Z,9.88
2023-02-08T19:17:32.607Z,9.13
2023-02-08T19:20:05.146Z,11.27
2023-02-08T19:22:35.832Z,9.90
2023-02-08T19:25:08.254Z,9.65
2023-02-08T19:27:38.737Z,13.13
2023-02-08T19:30:15.790Z,9.80
2023-02-08T19:32:46.977Z,11.77
2023-02-08T19:35:18.581Z,13.60
2023-02-08T19:37:51.439Z,10.13
2023-02-08T19:40:24.442Z,11.50
2023-02-08T19:42:55.093Z,9.65
2023-02-08T19:45:30.425Z,10.80
2023-02-08T19:48:00.964Z,10.48
2023-02-08T19:50:31.628Z,13.05
2023-02-08T19:53:02.225Z,11.30
2023-02-08T19:55:32.525Z,16.20
2023-02-08T19:58:03.161Z,17.00
2023-02-08T20:00:36.653Z,17.08
2023-02-08T20:03:20.722Z,18.83
2023-02-08T20:05:53.729Z,17.42
2023-02-08T20:08:27.342Z,18.40
2023-02-08T20:10:58.192Z,17.85
2023-02-08T20:13:30.012Z,19.88
2023-02-08T20:16:03.291Z,16.92
2023-02-08T20:18:33.729Z,14.48
2023-02-08T20:21:05.289Z,13.63
2023-02-08T20:23:36.509Z,15.32
2023-02-08T20:26:11.920Z,13.70
2023-02-08T20:28:44.603Z,15.27
2023-02-08T20:31:20.160Z,13.40
2023-02-08T20:33:53.044Z,10.68
2023-02-08T20:36:25.844Z,11.88
2023-02-08T20:38:57.791Z,10.07
2023-02-08T20:41:31.262Z,11.13
2023-02-08T20:44:02.366Z,11.88
2023-02-08T20:46:43.268Z,11.77
2023-02-08T20:49:22.812Z,10.65
2023-02-08T20:51:55.211Z,11.80
2023-02-08T20:54:26.933Z,13.75
2023-02-08T20:56:57.445Z,14.75
2023-02-08T20:59:28.012Z,11.27
2023-02-08T21:02:01.104Z,11.23
2023-02-08T21:04:31.484Z,13.05
2023-02-08T21:07:01.934Z,14.60
2023-02-08T21:09:32.449Z,14.40
2023-02-08T21:12:02.788Z,14.18
2023-02-08T21:14:34.250Z,16.48
2023-02-08T21:17:07.368Z,15.48
2023-02-08T21:19:39.787Z,13.73
2023-02-08T21:22:10.045Z,13.13
2023-02-08T21:24:40.588Z,14.82
2023-02-08T21:27:11.618Z,14.38
2023-02-08T21:29:42.129Z,13.82
2023-02-08T21:32:15.628Z,13.60
2023-02-08T21:34:45.853Z,13.30
2023-02-08T21:37:16.089Z,13.32
2023-02-08T21:39:47.936Z,13.60
2023-02-08T21:42:18.212Z,12.98
2023-02-08T21:44:51.574Z,13.82
2023-02-08T21:47:26.427Z,10.23
2023-02-08T21:50:09.246Z,12.60
2023-02-08T21:52:52.878Z,14.68
2023-02-08T21:55:23.170Z,14.10
2023-02-08T21:57:53.928Z,15.82
2023-02-08T22:00:24.372Z,12.70
2023-02-08T22:02:57.572Z,12.57
2023-02-08T22:05:27.751Z,11.18
2023-02-08T22:08:00.400Z,10.82
2023-02-08T22:10:33.046Z,9.77
2023-02-08T22:13:04.384Z,10.32
2023-02-08T22:15:36.052Z,12.75
2023-02-08T22:18:09.160Z,10.32
2023-02-08T22:20:39.841Z,9.30
2023-02-08T22:23:10.230Z,10.48
2023-02-08T22:25:41.845Z,9.40
2023-02-08T22:28:12.237Z,10.88
2023-02-08T22:30:44.072Z,11.75
2023-02-08T22:33:17.127Z,9.65
2023-02-08T22:35:47.398Z,9.55
2023-02-08T22:38:17.683Z,11.70
2023-02-08T22:40:48.001Z,9.30
2023-02-08T22:43:18.344Z,9.25
2023-02-08T22:45:48.698Z,11.15
2023-02-08T22:48:21.499Z,10.57
2023-02-08T22:50:51.944Z,10.88
2023-02-08T22:53:24.742Z,9.43
2023-02-08T22:55:56.906Z,8.70
2023-02-08T22:58:27.306Z,8.90
2023-02-08T23:00:57.607Z,10.68
2023-02-08T23:03:31.064Z,11.57
2023-02-08T23:06:01.246Z,10.35
2023-02-08T23:08:31.572Z,10.82
2023-02-08T23:11:02.587Z,8.20
2023-02-08T23:13:34.047Z,9.43
2023-02-08T23:16:04.230Z,10.63
2023-02-08T23:18:38.473Z,8.88
2023-02-08T23:23:41.718Z,6.50
2023-02-08T23:26:14.036Z,8.98
2023-02-08T23:28:44.882Z,8.98
2023-02-08T23:31:17.541Z,7.80
2023-02-08T23:33:50.542Z,7.97
2023-02-08T23:36:23.957Z,9.75
2023-02-08T23:38:54.211Z,7.30
2023-02-08T23:41:26.268Z,7.47
2023-02-08T23:43:56.545Z,7.90
2023-02-08T23:46:29.546Z,8.52
2023-02-08T23:49:02.417Z,7.37
2023-02-08T23:51:32.594Z,7.07
2023-02-08T23:54:07.127Z,8.45
2023-02-08T23:56:37.266Z,7.15
2023-02-08T23:59:08.467Z,7.22
